sensor_id;sensor_type;location;lat;lon;timestamp;temperature;humidity
80212;DHT22;70434;37.956;23.722;2023-06-04T00:00:43;24.80;37.50
80212;DHT22;70434;37.956;23.722;2023-06-04T00:03:10;24.90;37.20
80212;DHT22;70434;37.956;23.722;2023-06-04T00:05:35;24.90;37.20
80212;DHT22;70434;37.956;23.722;2023-06-04T00:08:01;25.00;37.10
80212;DHT22;70434;37.956;23.722;2023-06-04T00:10:27;24.90;37.00
80212;DHT22;70434;37.956;23.722;2023-06-04T00:12:52;24.90;37.20
80212;DHT22;70434;37.956;23.722;2023-06-04T00:15:18;24.90;37.20
80212;DHT22;70434;37.956;23.722;2023-06-04T00:17:44;24.90;37.20
80212;DHT22;70434;37.956;23.722;2023-06-04T00:20:10;24.90;37.20
80212;DHT22;70434;37.956;23.722;2023-06-04T00:22:36;24.90;37.20
80212;DHT22;70434;37.956;23.722;2023-06-04T00:25:03;24.90;37.20
80212;DHT22;70434;37.956;23.722;2023-06-04T00:27:29;24.80;37.00
80212;DHT22;70434;37.956;23.722;2023-06-04T00:29:57;24.80;36.80
80212;DHT22;70434;37.956;23.722;2023-06-04T00:32:30;24.80;36.80
80212;DHT22;70434;37.956;23.722;2023-06-04T00:35:07;24.80;36.70
80212;DHT22;70434;37.956;23.722;2023-06-04T00:37:34;24.80;36.90
80212;DHT22;70434;37.956;23.722;2023-06-04T00:40:00;24.80;36.80
80212;DHT22;70434;37.956;23.722;2023-06-04T00:42:26;24.70;36.70
80212;DHT22;70434;37.956;23.722;2023-06-04T00:44:52;24.60;36.60
80212;DHT22;70434;37.956;23.722;2023-06-04T00:47:19;24.50;37.00
80212;DHT22;70434;37.956;23.722;2023-06-04T00:49:46;24.50;37.20
80212;DHT22;70434;37.956;23.722;2023-06-04T00:52:15;24.50;37.00
80212;DHT22;70434;37.956;23.722;2023-06-04T00:54:41;24.50;36.20
80212;DHT22;70434;37.956;23.722;2023-06-04T00:57:07;24.60;36.00
80212;DHT22;70434;37.956;23.722;2023-06-04T00:59:36;24.50;35.20
80212;DHT22;70434;37.956;23.722;2023-06-04T01:02:14;24.50;35.50
80212;DHT22;70434;37.956;23.722;2023-06-04T01:07:27;24.50;35.30
80212;DHT22;70434;37.956;23.722;2023-06-04T01:09:54;24.50;35.10
80212;DHT22;70434;37.956;23.722;2023-06-04T01:12:20;24.50;35.30
80212;DHT22;70434;37.956;23.722;2023-06-04T01:14:46;24.50;35.00
80212;DHT22;70434;37.956;23.722;2023-06-04T01:24:56;24.30;35.00
80212;DHT22;70434;37.956;23.722;2023-06-04T01:27:25;24.30;35.40
80212;DHT22;70434;37.956;23.722;2023-06-04T01:29:51;24.30;35.40
80212;DHT22;70434;37.956;23.722;2023-06-04T01:32:17;24.30;35.40
80212;DHT22;70434;37.956;23.722;2023-06-04T01:34:45;24.30;35.90
80212;DHT22;70434;37.956;23.722;2023-06-04T01:37:10;24.30;36.20
80212;DHT22;70434;37.956;23.722;2023-06-04T01:39:37;24.20;36.70
80212;DHT22;70434;37.956;23.722;2023-06-04T01:42:03;24.20;37.40
80212;DHT22;70434;37.956;23.722;2023-06-04T01:44:28;24.30;37.50
80212;DHT22;70434;37.956;23.722;2023-06-04T01:46:54;24.30;37.70
80212;DHT22;70434;37.956;23.722;2023-06-04T01:49:20;24.30;37.90
80212;DHT22;70434;37.956;23.722;2023-06-04T01:51:45;24.30;37.90
80212;DHT22;70434;37.956;23.722;2023-06-04T01:54:11;24.30;38.10
80212;DHT22;70434;37.956;23.722;2023-06-04T01:56:37;24.30;38.30
80212;DHT22;70434;37.956;23.722;2023-06-04T01:59:02;24.30;37.90
80212;DHT22;70434;37.956;23.722;2023-06-04T02:01:29;24.20;38.10
80212;DHT22;70434;37.956;23.722;2023-06-04T02:03:55;24.10;38.40
80212;DHT22;70434;37.956;23.722;2023-06-04T02:06:21;24.10;38.50
80212;DHT22;70434;37.956;23.722;2023-06-04T02:08:46;24.10;38.80
80212;DHT22;70434;37.956;23.722;2023-06-04T02:11:12;24.10;38.80
80212;DHT22;70434;37.956;23.722;2023-06-04T02:13:38;24.00;39.10
80212;DHT22;70434;37.956;23.722;2023-06-04T02:16:04;23.90;39.30
80212;DHT22;70434;37.956;23.722;2023-06-04T02:18:30;23.90;40.60
80212;DHT22;70434;37.956;23.722;2023-06-04T02:20:56;23.90;39.60
80212;DHT22;70434;37.956;23.722;2023-06-04T02:23:22;24.00;40.10
80212;DHT22;70434;37.956;23.722;2023-06-04T02:25:48;24.00;40.10
80212;DHT22;70434;37.956;23.722;2023-06-04T02:28:15;24.00;39.80
80212;DHT22;70434;37.956;23.722;2023-06-04T02:30:41;23.90;40.00
80212;DHT22;70434;37.956;23.722;2023-06-04T02:33:07;24.00;40.30
80212;DHT22;70434;37.956;23.722;2023-06-04T02:35:35;23.90;40.40
80212;DHT22;70434;37.956;23.722;2023-06-04T02:38:01;23.90;40.30
80212;DHT22;70434;37.956;23.722;2023-06-04T02:40:27;23.90;40.60
80212;DHT22;70434;37.956;23.722;2023-06-04T02:42:53;23.90;40.40
80212;DHT22;70434;37.956;23.722;2023-06-04T02:45:19;23.90;40.60
80212;DHT22;70434;37.956;23.722;2023-06-04T02:47:45;23.90;40.80
80212;DHT22;70434;37.956;23.722;2023-06-04T02:50:12;23.90;40.80
80212;DHT22;70434;37.956;23.722;2023-06-04T02:52:38;23.90;40.60
80212;DHT22;70434;37.956;23.722;2023-06-04T02:55:06;24.00;40.90
80212;DHT22;70434;37.956;23.722;2023-06-04T02:57:32;24.00;40.70
80212;DHT22;70434;37.956;23.722;2023-06-04T02:59:59;24.00;40.60
80212;DHT22;70434;37.956;23.722;2023-06-04T03:02:25;24.00;40.90
80212;DHT22;70434;37.956;23.722;2023-06-04T03:04:51;23.90;40.50
80212;DHT22;70434;37.956;23.722;2023-06-04T03:07:18;23.90;40.40
80212;DHT22;70434;37.956;23.722;2023-06-04T03:09:48;23.90;40.30
80212;DHT22;70434;37.956;23.722;2023-06-04T03:12:14;23.80;40.00
80212;DHT22;70434;37.956;23.722;2023-06-04T03:14:40;23.80;38.60
80212;DHT22;70434;37.956;23.722;2023-06-04T03:17:06;23.80;37.30
80212;DHT22;70434;37.956;23.722;2023-06-04T03:19:40;23.70;36.60
80212;DHT22;70434;37.956;23.722;2023-06-04T03:22:07;23.60;36.20
80212;DHT22;70434;37.956;23.722;2023-06-04T03:24:38;23.50;36.10
80212;DHT22;70434;37.956;23.722;2023-06-04T03:27:04;23.50;36.10
80212;DHT22;70434;37.956;23.722;2023-06-04T03:29:31;23.50;36.30
80212;DHT22;70434;37.956;23.722;2023-06-04T03:31:58;23.40;36.60
80212;DHT22;70434;37.956;23.722;2023-06-04T03:34:24;23.40;37.40
80212;DHT22;70434;37.956;23.722;2023-06-04T03:36:55;23.50;37.20
80212;DHT22;70434;37.956;23.722;2023-06-04T03:39:21;23.50;36.50
80212;DHT22;70434;37.956;23.722;2023-06-04T03:41:48;23.50;36.10
80212;DHT22;70434;37.956;23.722;2023-06-04T03:44:17;23.40;36.10
80212;DHT22;70434;37.956;23.722;2023-06-04T03:46:44;23.50;36.50
80212;DHT22;70434;37.956;23.722;2023-06-04T03:49:10;23.40;36.30
80212;DHT22;70434;37.956;23.722;2023-06-04T03:51:41;23.50;36.00
80212;DHT22;70434;37.956;23.722;2023-06-04T03:54:06;23.50;36.00
80212;DHT22;70434;37.956;23.722;2023-06-04T03:56:32;23.50;36.00
80212;DHT22;70434;37.956;23.722;2023-06-04T03:58:58;23.50;36.00
80212;DHT22;70434;37.956;23.722;2023-06-04T04:01:25;23.60;36.30
80212;DHT22;70434;37.956;23.722;2023-06-04T04:03:51;23.70;35.70
80212;DHT22;70434;37.956;23.722;2023-06-04T04:06:17;23.70;35.40
80212;DHT22;70434;37.956;23.722;2023-06-04T04:08:44;23.70;35.30
80212;DHT22;70434;37.956;23.722;2023-06-04T04:11:13;23.60;35.70
80212;DHT22;70434;37.956;23.722;2023-06-04T04:13:39;23.70;36.60
80212;DHT22;70434;37.956;23.722;2023-06-04T04:16:05;23.60;36.80
80212;DHT22;70434;37.956;23.722;2023-06-04T04:18:35;23.70;36.50
80212;DHT22;70434;37.956;23.722;2023-06-04T04:21:01;23.70;36.10
80212;DHT22;70434;37.956;23.722;2023-06-04T04:23:27;23.70;36.60
80212;DHT22;70434;37.956;23.722;2023-06-04T04:25:53;23.70;37.10
80212;DHT22;70434;37.956;23.722;2023-06-04T04:28:19;23.80;37.80
80212;DHT22;70434;37.956;23.722;2023-06-04T04:30:46;23.80;38.50
80212;DHT22;70434;37.956;23.722;2023-06-04T04:33:12;23.90;39.20
80212;DHT22;70434;37.956;23.722;2023-06-04T04:35:41;23.90;40.00
80212;DHT22;70434;37.956;23.722;2023-06-04T04:38:10;23.90;40.20
80212;DHT22;70434;37.956;23.722;2023-06-04T04:40:37;24.00;40.40
80212;DHT22;70434;37.956;23.722;2023-06-04T04:43:03;24.00;40.60
80212;DHT22;70434;37.956;23.722;2023-06-04T04:45:29;24.10;40.80
80212;DHT22;70434;37.956;23.722;2023-06-04T04:47:54;24.00;40.40
80212;DHT22;70434;37.956;23.722;2023-06-04T04:50:20;24.00;39.90
80212;DHT22;70434;37.956;23.722;2023-06-04T04:52:46;24.10;39.90
80212;DHT22;70434;37.956;23.722;2023-06-04T04:55:12;24.10;39.90
80212;DHT22;70434;37.956;23.722;2023-06-04T04:57:38;24.10;39.80
80212;DHT22;70434;37.956;23.722;2023-06-04T05:00:05;24.10;39.60
80212;DHT22;70434;37.956;23.722;2023-06-04T05:02:34;24.20;39.30
80212;DHT22;70434;37.956;23.722;2023-06-04T05:05:00;24.30;39.10
80212;DHT22;70434;37.956;23.722;2023-06-04T05:07:25;24.30;39.10
80212;DHT22;70434;37.956;23.722;2023-06-04T05:09:51;24.30;38.90
80212;DHT22;70434;37.956;23.722;2023-06-04T05:12:17;24.40;38.80
80212;DHT22;70434;37.956;23.722;2023-06-04T05:14:43;24.40;38.80
80212;DHT22;70434;37.956;23.722;2023-06-04T05:17:08;24.50;38.50
80212;DHT22;70434;37.956;23.722;2023-06-04T05:19:36;24.50;38.10
80212;DHT22;70434;37.956;23.722;2023-06-04T05:22:03;24.60;38.20
80212;DHT22;70434;37.956;23.722;2023-06-04T05:24:29;24.70;37.80
80212;DHT22;70434;37.956;23.722;2023-06-04T05:26:57;24.70;37.10
80212;DHT22;70434;37.956;23.722;2023-06-04T05:29:23;24.70;36.80
80212;DHT22;70434;37.956;23.722;2023-06-04T05:31:49;24.70;37.40
80212;DHT22;70434;37.956;23.722;2023-06-04T05:34:15;24.70;37.10
80212;DHT22;70434;37.956;23.722;2023-06-04T05:36:44;24.80;36.60
80212;DHT22;70434;37.956;23.722;2023-06-04T05:39:10;24.80;35.90
80212;DHT22;70434;37.956;23.722;2023-06-04T05:41:36;24.90;36.00
80212;DHT22;70434;37.956;23.722;2023-06-04T05:44:02;24.90;35.80
80212;DHT22;70434;37.956;23.722;2023-06-04T05:46:28;25.00;35.70
80212;DHT22;70434;37.956;23.722;2023-06-04T05:48:54;25.10;35.30
80212;DHT22;70434;37.956;23.722;2023-06-04T05:51:20;25.20;35.30
80212;DHT22;70434;37.956;23.722;2023-06-04T05:53:47;25.10;34.80
80212;DHT22;70434;37.956;23.722;2023-06-04T05:56:13;25.20;34.70
80212;DHT22;70434;37.956;23.722;2023-06-04T05:58:39;25.30;34.50
80212;DHT22;70434;37.956;23.722;2023-06-04T06:01:05;25.40;34.50
80212;DHT22;70434;37.956;23.722;2023-06-04T06:03:30;25.40;33.90
80212;DHT22;70434;37.956;23.722;2023-06-04T06:05:57;25.50;33.80
80212;DHT22;70434;37.956;23.722;2023-06-04T06:08:23;25.40;33.80
80212;DHT22;70434;37.956;23.722;2023-06-04T06:10:50;25.50;33.50
80212;DHT22;70434;37.956;23.722;2023-06-04T06:13:16;25.60;33.50
80212;DHT22;70434;37.956;23.722;2023-06-04T06:15:41;25.60;33.00
80212;DHT22;70434;37.956;23.722;2023-06-04T06:18:07;25.70;33.00
80212;DHT22;70434;37.956;23.722;2023-06-04T06:20:33;25.70;32.80
80212;DHT22;70434;37.956;23.722;2023-06-04T06:23:06;25.80;33.30
80212;DHT22;70434;37.956;23.722;2023-06-04T06:25:31;25.80;32.80
80212;DHT22;70434;37.956;23.722;2023-06-04T06:27:57;25.90;32.20
80212;DHT22;70434;37.956;23.722;2023-06-04T06:30:23;26.00;32.20
80212;DHT22;70434;37.956;23.722;2023-06-04T06:32:49;26.10;32.90
80212;DHT22;70434;37.956;23.722;2023-06-04T06:35:15;26.20;31.80
80212;DHT22;70434;37.956;23.722;2023-06-04T06:37:41;26.30;32.20
80212;DHT22;70434;37.956;23.722;2023-06-04T06:40:09;26.30;32.00
80212;DHT22;70434;37.956;23.722;2023-06-04T06:42:35;26.30;32.80
80212;DHT22;70434;37.956;23.722;2023-06-04T06:45:01;26.30;32.10
80212;DHT22;70434;37.956;23.722;2023-06-04T06:47:27;26.30;32.50
80212;DHT22;70434;37.956;23.722;2023-06-04T06:49:52;26.40;30.90
80212;DHT22;70434;37.956;23.722;2023-06-04T06:52:18;26.50;30.00
80212;DHT22;70434;37.956;23.722;2023-06-04T06:54:45;26.60;31.00
80212;DHT22;70434;37.956;23.722;2023-06-04T06:57:11;26.80;31.10
80212;DHT22;70434;37.956;23.722;2023-06-04T06:59:37;26.80;31.10
80212;DHT22;70434;37.956;23.722;2023-06-04T07:02:04;26.90;31.00
80212;DHT22;70434;37.956;23.722;2023-06-04T07:04:30;27.00;31.20
80212;DHT22;70434;37.956;23.722;2023-06-04T07:06:56;27.10;30.60
80212;DHT22;70434;37.956;23.722;2023-06-04T07:09:22;27.10;30.30
80212;DHT22;70434;37.956;23.722;2023-06-04T07:11:47;27.10;30.30
80212;DHT22;70434;37.956;23.722;2023-06-04T07:14:14;27.10;30.50
80212;DHT22;70434;37.956;23.722;2023-06-04T07:16:39;27.20;30.30
80212;DHT22;70434;37.956;23.722;2023-06-04T07:19:05;27.30;30.30
80212;DHT22;70434;37.956;23.722;2023-06-04T07:21:31;27.30;30.70
80212;DHT22;70434;37.956;23.722;2023-06-04T07:23:56;27.40;31.10
80212;DHT22;70434;37.956;23.722;2023-06-04T07:26:22;27.40;31.30
80212;DHT22;70434;37.956;23.722;2023-06-04T07:28:50;27.40;31.70
80212;DHT22;70434;37.956;23.722;2023-06-04T07:31:16;27.40;32.50
80212;DHT22;70434;37.956;23.722;2023-06-04T07:33:42;27.40;31.70
80212;DHT22;70434;37.956;23.722;2023-06-04T07:36:15;27.40;32.40
80212;DHT22;70434;37.956;23.722;2023-06-04T07:38:41;27.40;32.90
80212;DHT22;70434;37.956;23.722;2023-06-04T07:41:07;27.40;32.90
80212;DHT22;70434;37.956;23.722;2023-06-04T07:43:34;27.50;33.40
80212;DHT22;70434;37.956;23.722;2023-06-04T07:46:01;27.40;34.30
80212;DHT22;70434;37.956;23.722;2023-06-04T07:48:27;27.40;34.20
80212;DHT22;70434;37.956;23.722;2023-06-04T07:51:00;27.50;34.00
80212;DHT22;70434;37.956;23.722;2023-06-04T07:53:26;27.60;33.20
80212;DHT22;70434;37.956;23.722;2023-06-04T07:55:52;27.60;33.40
80212;DHT22;70434;37.956;23.722;2023-06-04T07:58:18;27.60;33.20
80212;DHT22;70434;37.956;23.722;2023-06-04T08:00:44;27.70;33.30
80212;DHT22;70434;37.956;23.722;2023-06-04T08:03:09;27.70;33.20
80212;DHT22;70434;37.956;23.722;2023-06-04T08:05:36;27.60;33.10
80212;DHT22;70434;37.956;23.722;2023-06-04T08:08:02;27.70;33.90
80212;DHT22;70434;37.956;23.722;2023-06-04T08:10:29;27.70;34.70
80212;DHT22;70434;37.956;23.722;2023-06-04T08:12:55;27.80;34.90
80212;DHT22;70434;37.956;23.722;2023-06-04T08:15:21;27.90;35.00
80212;DHT22;70434;37.956;23.722;2023-06-04T08:17:47;27.90;34.60
80212;DHT22;70434;37.956;23.722;2023-06-04T08:20:12;28.00;35.20
80212;DHT22;70434;37.956;23.722;2023-06-04T08:22:38;28.00;34.50
80212;DHT22;70434;37.956;23.722;2023-06-04T08:25:04;28.00;34.00
80212;DHT22;70434;37.956;23.722;2023-06-04T08:27:31;28.00;34.20
80212;DHT22;70434;37.956;23.722;2023-06-04T08:29:57;28.00;33.50
80212;DHT22;70434;37.956;23.722;2023-06-04T08:32:23;27.80;33.80
80212;DHT22;70434;37.956;23.722;2023-06-04T08:34:50;27.80;34.80
80212;DHT22;70434;37.956;23.722;2023-06-04T08:37:17;27.90;35.50
80212;DHT22;70434;37.956;23.722;2023-06-04T08:39:43;27.90;35.20
80212;DHT22;70434;37.956;23.722;2023-06-04T08:42:15;27.90;35.00
80212;DHT22;70434;37.956;23.722;2023-06-04T08:44:42;27.90;35.00
80212;DHT22;70434;37.956;23.722;2023-06-04T08:47:09;27.90;35.70
80212;DHT22;70434;37.956;23.722;2023-06-04T08:49:40;28.00;36.40
80212;DHT22;70434;37.956;23.722;2023-06-04T08:52:08;28.00;36.60
80212;DHT22;70434;37.956;23.722;2023-06-04T08:54:34;28.00;36.40
80212;DHT22;70434;37.956;23.722;2023-06-04T08:57:00;28.00;36.70
80212;DHT22;70434;37.956;23.722;2023-06-04T08:59:27;27.90;37.00
80212;DHT22;70434;37.956;23.722;2023-06-04T09:01:54;27.90;36.80
80212;DHT22;70434;37.956;23.722;2023-06-04T09:04:20;27.90;37.10
80212;DHT22;70434;37.956;23.722;2023-06-04T09:06:47;27.90;37.30
80212;DHT22;70434;37.956;23.722;2023-06-04T09:09:14;27.90;37.30
80212;DHT22;70434;37.956;23.722;2023-06-04T09:11:55;27.90;37.60
80212;DHT22;70434;37.956;23.722;2023-06-04T09:14:21;28.00;37.40
80212;DHT22;70434;37.956;23.722;2023-06-04T09:19:14;28.10;37.00
80212;DHT22;70434;37.956;23.722;2023-06-04T09:22:06;28.20;36.10
80212;DHT22;70434;37.956;23.722;2023-06-04T09:24:43;28.20;36.30
80212;DHT22;70434;37.956;23.722;2023-06-04T09:27:17;28.20;36.90
80212;DHT22;70434;37.956;23.722;2023-06-04T09:29:50;28.30;38.50
80212;DHT22;70434;37.956;23.722;2023-06-04T09:32:27;28.40;37.30
80212;DHT22;70434;37.956;23.722;2023-06-04T09:34:54;28.40;37.40
80212;DHT22;70434;37.956;23.722;2023-06-04T09:37:20;28.40;36.90
80212;DHT22;70434;37.956;23.722;2023-06-04T09:39:53;28.40;36.70
80212;DHT22;70434;37.956;23.722;2023-06-04T09:42:20;28.50;36.90
80212;DHT22;70434;37.956;23.722;2023-06-04T09:44:46;28.60;37.10
80212;DHT22;70434;37.956;23.722;2023-06-04T09:47:12;28.60;36.90
80212;DHT22;70434;37.956;23.722;2023-06-04T09:49:42;28.80;35.60
80212;DHT22;70434;37.956;23.722;2023-06-04T09:52:08;28.80;35.00
80212;DHT22;70434;37.956;23.722;2023-06-04T09:54:39;28.80;34.40
80212;DHT22;70434;37.956;23.722;2023-06-04T09:57:23;28.90;33.70
80212;DHT22;70434;37.956;23.722;2023-06-04T09:59:50;28.90;33.50
80212;DHT22;70434;37.956;23.722;2023-06-04T10:02:20;28.90;33.20
80212;DHT22;70434;37.956;23.722;2023-06-04T10:04:53;28.90;33.30
80212;DHT22;70434;37.956;23.722;2023-06-04T10:07:23;29.00;33.40
80212;DHT22;70434;37.956;23.722;2023-06-04T10:09:50;29.10;33.60
80212;DHT22;70434;37.956;23.722;2023-06-04T10:12:25;29.10;33.40
80212;DHT22;70434;37.956;23.722;2023-06-04T10:14:56;29.30;32.80
80212;DHT22;70434;37.956;23.722;2023-06-04T10:17:25;29.40;32.30
80212;DHT22;70434;37.956;23.722;2023-06-04T10:19:52;29.50;32.10
80212;DHT22;70434;37.956;23.722;2023-06-04T10:22:23;29.40;32.10
80212;DHT22;70434;37.956;23.722;2023-06-04T10:24:49;29.40;32.40
80212;DHT22;70434;37.956;23.722;2023-06-04T10:27:16;29.40;31.90
80212;DHT22;70434;37.956;23.722;2023-06-04T10:29:43;29.50;31.40
80212;DHT22;70434;37.956;23.722;2023-06-04T10:32:09;29.60;31.30
80212;DHT22;70434;37.956;23.722;2023-06-04T10:34:35;29.60;31.10
80212;DHT22;70434;37.956;23.722;2023-06-04T10:37:01;29.60;31.30
80212;DHT22;70434;37.956;23.722;2023-06-04T10:39:28;29.60;30.60
80212;DHT22;70434;37.956;23.722;2023-06-04T10:42:04;29.60;30.80
80212;DHT22;70434;37.956;23.722;2023-06-04T10:44:31;29.60;30.70
80212;DHT22;70434;37.956;23.722;2023-06-04T10:46:58;29.70;31.20
80212;DHT22;70434;37.956;23.722;2023-06-04T10:49:30;29.80;31.50
80212;DHT22;70434;37.956;23.722;2023-06-04T10:52:10;29.90;31.50
80212;DHT22;70434;37.956;23.722;2023-06-04T10:54:36;29.90;31.50
80212;DHT22;70434;37.956;23.722;2023-06-04T10:57:19;30.00;30.50
80212;DHT22;70434;37.956;23.722;2023-06-04T10:59:59;30.00;30.30
80212;DHT22;70434;37.956;23.722;2023-06-04T11:02:25;29.90;30.30
80212;DHT22;70434;37.956;23.722;2023-06-04T11:05:07;29.80;30.40
80212;DHT22;70434;37.956;23.722;2023-06-04T11:07:45;29.80;30.30
80212;DHT22;70434;37.956;23.722;2023-06-04T11:10:12;29.90;30.10
80212;DHT22;70434;37.956;23.722;2023-06-04T11:12:56;29.90;30.00
80212;DHT22;70434;37.956;23.722;2023-06-04T11:15:21;29.90;30.30
80212;DHT22;70434;37.956;23.722;2023-06-04T11:17:55;30.10;29.40
80212;DHT22;70434;37.956;23.722;2023-06-04T11:20:22;30.20;29.50
80212;DHT22;70434;37.956;23.722;2023-06-04T11:22:56;30.30;28.70
80212;DHT22;70434;37.956;23.722;2023-06-04T11:25:23;30.50;29.30
80212;DHT22;70434;37.956;23.722;2023-06-04T11:27:52;30.50;29.10
80212;DHT22;70434;37.956;23.722;2023-06-04T11:30:19;30.50;29.00
80212;DHT22;70434;37.956;23.722;2023-06-04T11:32:45;30.50;29.10
80212;DHT22;70434;37.956;23.722;2023-06-04T11:35:11;30.40;29.20
80212;DHT22;70434;37.956;23.722;2023-06-04T11:37:38;30.30;29.50
80212;DHT22;70434;37.956;23.722;2023-06-04T11:40:18;30.30;29.60
80212;DHT22;70434;37.956;23.722;2023-06-04T11:42:45;30.20;29.40
80212;DHT22;70434;37.956;23.722;2023-06-04T11:45:16;30.10;28.70
80212;DHT22;70434;37.956;23.722;2023-06-04T11:47:48;30.00;28.90
80212;DHT22;70434;37.956;23.722;2023-06-04T11:50:15;29.90;29.20
80212;DHT22;70434;37.956;23.722;2023-06-04T11:52:41;29.80;29.50
80212;DHT22;70434;37.956;23.722;2023-06-04T11:55:11;29.60;30.60
80212;DHT22;70434;37.956;23.722;2023-06-04T11:57:38;29.50;31.30
80212;DHT22;70434;37.956;23.722;2023-06-04T12:00:05;29.50;32.10
80212;DHT22;70434;37.956;23.722;2023-06-04T12:02:36;29.40;33.30
80212;DHT22;70434;37.956;23.722;2023-06-04T12:05:12;29.20;35.50
80212;DHT22;70434;37.956;23.722;2023-06-04T12:07:38;29.10;36.10
80212;DHT22;70434;37.956;23.722;2023-06-04T12:10:07;29.00;37.10
80212;DHT22;70434;37.956;23.722;2023-06-04T12:12:40;29.00;36.40
80212;DHT22;70434;37.956;23.722;2023-06-04T12:15:07;29.00;38.40
80212;DHT22;70434;37.956;23.722;2023-06-04T12:17:33;29.00;38.50
80212;DHT22;70434;37.956;23.722;2023-06-04T12:19:59;29.00;37.40
80212;DHT22;70434;37.956;23.722;2023-06-04T12:22:25;29.00;36.30
80212;DHT22;70434;37.956;23.722;2023-06-04T12:24:56;29.10;36.00
80212;DHT22;70434;37.956;23.722;2023-06-04T12:27:26;29.10;37.90
80212;DHT22;70434;37.956;23.722;2023-06-04T12:30:03;29.00;40.00
80212;DHT22;70434;37.956;23.722;2023-06-04T12:32:29;28.90;41.40
80212;DHT22;70434;37.956;23.722;2023-06-04T12:34:56;28.80;42.70
80212;DHT22;70434;37.956;23.722;2023-06-04T12:37:23;28.70;42.80
80212;DHT22;70434;37.956;23.722;2023-06-04T12:39:51;28.50;43.50
80212;DHT22;70434;37.956;23.722;2023-06-04T12:42:18;28.40;44.20
80212;DHT22;70434;37.956;23.722;2023-06-04T12:44:44;28.30;44.10
80212;DHT22;70434;37.956;23.722;2023-06-04T12:47:10;28.30;44.20
80212;DHT22;70434;37.956;23.722;2023-06-04T12:49:37;28.20;44.00
80212;DHT22;70434;37.956;23.722;2023-06-04T12:52:03;28.10;45.10
80212;DHT22;70434;37.956;23.722;2023-06-04T12:54:30;28.00;45.40
80212;DHT22;70434;37.956;23.722;2023-06-04T12:56:56;28.00;45.50
80212;DHT22;70434;37.956;23.722;2023-06-04T12:59:26;27.90;46.60
80212;DHT22;70434;37.956;23.722;2023-06-04T13:01:53;27.80;47.00
80212;DHT22;70434;37.956;23.722;2023-06-04T13:04:19;27.70;47.50
80212;DHT22;70434;37.956;23.722;2023-06-04T13:06:45;27.50;47.60
80212;DHT22;70434;37.956;23.722;2023-06-04T13:09:14;27.40;48.10
80212;DHT22;70434;37.956;23.722;2023-06-04T13:11:43;27.40;48.40
80212;DHT22;70434;37.956;23.722;2023-06-04T13:14:10;27.50;48.90
80212;DHT22;70434;37.956;23.722;2023-06-04T13:16:37;27.70;48.40
80212;DHT22;70434;37.956;23.722;2023-06-04T13:19:03;27.80;47.70
80212;DHT22;70434;37.956;23.722;2023-06-04T13:21:29;28.00;48.90
80212;DHT22;70434;37.956;23.722;2023-06-04T13:23:55;28.10;48.40
80212;DHT22;70434;37.956;23.722;2023-06-04T13:26:22;28.20;48.30
80212;DHT22;70434;37.956;23.722;2023-06-04T13:28:48;28.50;47.70
80212;DHT22;70434;37.956;23.722;2023-06-04T13:31:14;28.70;46.60
80212;DHT22;70434;37.956;23.722;2023-06-04T13:33:40;29.00;44.00
80212;DHT22;70434;37.956;23.722;2023-06-04T13:36:07;29.10;42.70
80212;DHT22;70434;37.956;23.722;2023-06-04T13:38:33;29.30;43.90
80212;DHT22;70434;37.956;23.722;2023-06-04T13:40:59;29.50;40.90
80212;DHT22;70434;37.956;23.722;2023-06-04T13:43:25;29.80;41.30
80212;DHT22;70434;37.956;23.722;2023-06-04T13:45:50;30.00;40.10
80212;DHT22;70434;37.956;23.722;2023-06-04T13:48:16;30.10;37.80
80212;DHT22;70434;37.956;23.722;2023-06-04T13:50:42;30.30;37.40
80212;DHT22;70434;37.956;23.722;2023-06-04T13:53:09;30.40;36.50
80212;DHT22;70434;37.956;23.722;2023-06-04T13:55:34;30.60;36.80
80212;DHT22;70434;37.956;23.722;2023-06-04T13:58:00;30.70;36.30
80212;DHT22;70434;37.956;23.722;2023-06-04T14:00:26;30.80;33.90
80212;DHT22;70434;37.956;23.722;2023-06-04T14:02:52;30.90;34.10
80212;DHT22;70434;37.956;23.722;2023-06-04T14:05:21;31.00;33.60
80212;DHT22;70434;37.956;23.722;2023-06-04T14:07:47;31.20;33.80
80212;DHT22;70434;37.956;23.722;2023-06-04T14:10:12;31.30;33.70
80212;DHT22;70434;37.956;23.722;2023-06-04T14:12:39;31.30;33.30
80212;DHT22;70434;37.956;23.722;2023-06-04T14:15:07;31.40;32.20
80212;DHT22;70434;37.956;23.722;2023-06-04T14:17:34;31.50;30.90
80212;DHT22;70434;37.956;23.722;2023-06-04T14:20:01;31.60;30.00
80212;DHT22;70434;37.956;23.722;2023-06-04T14:22:26;31.70;29.70
80212;DHT22;70434;37.956;23.722;2023-06-04T14:24:52;31.80;28.70
80212;DHT22;70434;37.956;23.722;2023-06-04T14:27:18;31.90;29.10
80212;DHT22;70434;37.956;23.722;2023-06-04T14:29:43;31.90;28.80
80212;DHT22;70434;37.956;23.722;2023-06-04T14:32:09;32.10;29.70
80212;DHT22;70434;37.956;23.722;2023-06-04T14:34:35;32.20;29.60
80212;DHT22;70434;37.956;23.722;2023-06-04T14:37:01;32.30;28.80
80212;DHT22;70434;37.956;23.722;2023-06-04T14:39:27;32.40;28.30
80212;DHT22;70434;37.956;23.722;2023-06-04T14:41:53;32.40;28.90
80212;DHT22;70434;37.956;23.722;2023-06-04T14:44:20;32.50;28.20
80212;DHT22;70434;37.956;23.722;2023-06-04T14:46:46;32.60;27.40
80212;DHT22;70434;37.956;23.722;2023-06-04T14:49:12;32.70;28.40
80212;DHT22;70434;37.956;23.722;2023-06-04T14:51:38;32.70;27.70
80212;DHT22;70434;37.956;23.722;2023-06-04T14:54:04;32.80;28.10
80212;DHT22;70434;37.956;23.722;2023-06-04T14:56:30;32.90;28.30
80212;DHT22;70434;37.956;23.722;2023-06-04T14:58:56;32.90;28.00
80212;DHT22;70434;37.956;23.722;2023-06-04T15:01:22;32.90;27.60
80212;DHT22;70434;37.956;23.722;2023-06-04T15:03:50;33.00;27.80
80212;DHT22;70434;37.956;23.722;2023-06-04T15:06:16;33.00;27.90
80212;DHT22;70434;37.956;23.722;2023-06-04T15:08:42;32.90;26.60
80212;DHT22;70434;37.956;23.722;2023-06-04T15:11:10;32.70;27.90
80212;DHT22;70434;37.956;23.722;2023-06-04T15:13:36;32.80;27.50
80212;DHT22;70434;37.956;23.722;2023-06-04T15:16:02;32.90;28.00
80212;DHT22;70434;37.956;23.722;2023-06-04T15:18:28;32.90;28.00
80212;DHT22;70434;37.956;23.722;2023-06-04T15:20:54;32.90;27.40
80212;DHT22;70434;37.956;23.722;2023-06-04T15:23:20;33.00;27.10
80212;DHT22;70434;37.956;23.722;2023-06-04T15:25:45;33.10;26.80
80212;DHT22;70434;37.956;23.722;2023-06-04T15:28:11;33.20;27.20